Time;durP1;ratioP1;P1;durP2;ratioP2;P2;SDS_P1;SDS_P2;PMS_P1;PMS_P2;Temp;Humidity;BMP_temperature;BMP_pressure;BME280_temperature;BME280_humidity;BME280_pressure;Samples;Min_cycle;Max_cycle;Signal;HPM_P1;HPM_P2
2023/06/07 00:01:57;;;;;;;9.85;4.30;;;13.60;99.90;;;;;;5034126;28;20130;-61
2023/06/07 00:04:24;;;;;;;17.65;4.18;;;13.60;99.90;;;;;;5049685;28;20091;-61
2023/06/07 00:07:00;;;;;;;8.70;5.03;;;13.60;99.90;;;;;;5045057;28;20049;-61
2023/06/07 00:09:29;;;;;;;10.68;4.18;;;13.50;99.90;;;;;;5030991;28;20072;-64
2023/06/07 00:11:55;;;;;;;8.07;4.78;;;13.40;99.90;;;;;;5029941;28;20111;-62
2023/06/07 00:14:23;;;;;;;8.90;4.82;;;13.40;99.90;;;;;;5030499;28;20548;-61
2023/06/07 00:16:54;;;;;;;8.57;4.05;;;13.40;99.90;;;;;;5034639;28;20037;-60
2023/06/07 00:19:25;;;;;;;9.63;4.45;;;13.40;99.90;;;;;;5047936;28;20077;-61
2023/06/07 00:21:52;;;;;;;12.38;4.68;;;13.50;99.90;;;;;;5046543;28;20044;-61
2023/06/07 00:24:19;;;;;;;16.13;4.68;;;13.50;99.90;;;;;;5036092;28;20057;-61
2023/06/07 00:26:46;;;;;;;7.80;4.68;;;13.50;99.90;;;;;;5033664;28;20123;-60
2023/06/07 00:29:14;;;;;;;10.77;4.25;;;13.50;99.90;;;;;;5040426;28;20084;-61
2023/06/07 00:31:41;;;;;;;8.98;4.32;;;13.50;99.90;;;;;;4677930;28;9999714;-60
2023/06/07 00:34:08;;;;;;;9.23;4.28;;;13.50;99.90;;;;;;5038415;28;20128;-61
2023/06/07 00:36:35;;;;;;;15.55;4.70;;;13.50;99.90;;;;;;5031395;28;20460;-61
2023/06/07 00:39:02;;;;;;;8.30;3.95;;;13.40;99.90;;;;;;5037794;28;20041;-59
2023/06/07 00:41:29;;;;;;;9.65;3.75;;;13.40;99.90;;;;;;5032730;28;20443;-61
2023/06/07 00:43:56;;;;;;;16.67;5.95;;;13.40;99.90;;;;;;5037485;28;20045;-58
2023/06/07 00:46:26;;;;;;;8.18;4.30;;;13.50;99.90;;;;;;5049038;28;20532;-59
2023/06/07 00:48:53;;;;;;;10.77;4.38;;;13.50;99.90;;;;;;5017547;28;20060;-59
2023/06/07 00:51:21;;;;;;;9.52;4.32;;;13.40;99.90;;;;;;5031523;28;20052;-58
2023/06/07 00:53:50;;;;;;;12.15;4.32;;;13.40;99.90;;;;;;5043835;28;20114;-60
2023/06/07 00:56:17;;;;;;;8.93;3.78;;;13.30;99.90;;;;;;5011762;28;20128;-59
2023/06/07 00:58:44;;;;;;;9.50;4.05;;;13.40;99.90;;;;;;5015095;28;20053;-59
2023/06/07 01:01:11;;;;;;;10.20;4.10;;;13.30;99.90;;;;;;5030357;28;20049;-59
2023/06/07 01:03:37;;;;;;;7.82;4.03;;;13.40;99.90;;;;;;5026772;28;20057;-63
2023/06/07 01:06:05;;;;;;;7.45;3.95;;;13.30;99.90;;;;;;5032052;28;20050;-60
2023/06/07 01:08:32;;;;;;;8.30;4.50;;;13.40;99.90;;;;;;5032575;28;20052;-59
2023/06/07 01:10:59;;;;;;;8.80;3.78;;;13.30;99.90;;;;;;5025553;28;20052;-59
2023/06/07 01:13:26;;;;;;;7.07;3.80;;;13.30;99.90;;;;;;5026604;28;20140;-59
2023/06/07 01:15:53;;;;;;;10.55;4.88;;;13.30;99.90;;;;;;5036308;28;20492;-60
2023/06/07 01:18:20;;;;;;;7.95;4.18;;;13.20;99.90;;;;;;5031371;28;20055;-60
2023/06/07 01:20:49;;;;;;;7.43;3.80;;;13.20;99.90;;;;;;5038105;28;20178;-61
2023/06/07 01:23:16;;;;;;;11.38;4.05;;;13.20;99.90;;;;;;5027986;28;20056;-60
2023/06/07 01:25:43;;;;;;;9.57;3.97;;;13.20;99.90;;;;;;5021692;28;20061;-60
2023/06/07 01:28:10;;;;;;;15.35;4.38;;;13.20;99.90;;;;;;5011464;28;20049;-59
2023/06/07 01:30:37;;;;;;;9.18;4.70;;;13.30;99.90;;;;;;5019753;28;20444;-59
2023/06/07 01:33:04;;;;;;;9.27;3.95;;;13.30;99.90;;;;;;5030712;28;20132;-59
2023/06/07 01:35:31;;;;;;;8.70;4.18;;;13.20;99.90;;;;;;5022961;28;20041;-59
2023/06/07 01:37:58;;;;;;;8.15;4.32;;;13.20;99.90;;;;;;5010864;28;20480;-59
2023/06/07 01:40:25;;;;;;;11.32;5.10;;;13.10;99.90;;;;;;5021342;28;20057;-60
2023/06/07 01:42:52;;;;;;;13.88;4.82;;;13.10;99.90;;;;;;5010961;28;20086;-60
2023/06/07 01:45:18;;;;;;;8.68;4.28;;;13.00;99.90;;;;;;5014791;28;20038;-61
2023/06/07 01:47:45;;;;;;;8.50;4.13;;;13.00;99.90;;;;;;5029555;28;20407;-60
2023/06/07 01:50:20;;;;;;;9.73;4.72;;;13.00;99.90;;;;;;5025756;28;20127;-61
2023/06/07 01:52:46;;;;;;;11.77;4.38;;;13.10;99.90;;;;;;5030139;28;20057;-61
2023/06/07 01:55:13;;;;;;;7.97;3.85;;;13.00;99.90;;;;;;5030940;28;20546;-60
2023/06/07 01:57:58;;;;;;;11.13;4.20;;;13.10;99.90;;;;;;5043569;28;20439;-60
2023/06/07 02:00:32;;;;;;;10.60;4.35;;;13.10;99.90;;;;;;5010141;28;20071;-61
2023/06/07 02:03:05;;;;;;;10.10;5.30;;;13.10;99.90;;;;;;5014312;28;20049;-60
2023/06/07 02:05:33;;;;;;;10.67;4.50;;;13.00;99.90;;;;;;5013552;28;20150;-60
2023/06/07 02:08:02;;;;;;;11.32;4.05;;;13.00;99.90;;;;;;5025648;28;20645;-62
2023/06/07 02:10:29;;;;;;;13.40;4.20;;;12.90;99.90;;;;;;5025549;28;20052;-61
2023/06/07 02:12:56;;;;;;;7.15;4.45;;;12.90;99.90;;;;;;5029326;28;20053;-60
2023/06/07 02:15:23;;;;;;;13.90;4.82;;;12.90;99.90;;;;;;5012552;28;20046;-60
2023/06/07 02:17:57;;;;;;;8.15;4.75;;;12.90;99.90;;;;;;5047033;28;20056;-61
2023/06/07 02:20:25;;;;;;;10.80;4.43;;;12.90;99.90;;;;;;5043661;28;20049;-59
2023/06/07 02:22:52;;;;;;;5.90;4.47;;;12.90;99.90;;;;;;5047934;28;20060;-61
2023/06/07 02:25:19;;;;;;;10.90;4.93;;;12.90;99.90;;;;;;5027240;28;20045;-61
2023/06/07 02:27:46;;;;;;;8.07;4.88;;;12.80;99.90;;;;;;5039289;28;20080;-60
2023/06/07 02:30:12;;;;;;;9.68;4.85;;;12.80;99.90;;;;;;5028979;28;20144;-60
2023/06/07 02:32:39;;;;;;;8.32;4.82;;;12.70;99.90;;;;;;5040967;28;20507;-63
2023/06/07 02:35:08;;;;;;;15.05;5.70;;;12.70;99.90;;;;;;5041366;28;20046;-59
2023/06/07 02:37:35;;;;;;;7.88;4.57;;;12.70;99.90;;;;;;5039119;28;20416;-60
2023/06/07 02:40:05;;;;;;;7.43;4.50;;;12.70;99.90;;;;;;5051876;28;20486;-60
2023/06/07 02:42:32;;;;;;;10.05;5.05;;;12.80;99.90;;;;;;5045947;28;20507;-60
2023/06/07 02:45:01;;;;;;;10.07;5.30;;;12.80;99.90;;;;;;5032352;28;20455;-63
2023/06/07 02:47:29;;;;;;;10.75;4.07;;;12.80;99.90;;;;;;5036329;28;20042;-60
2023/06/07 02:49:57;;;;;;;9.55;4.85;;;12.80;99.90;;;;;;5032099;28;20500;-60
2023/06/07 02:52:27;;;;;;;11.90;4.20;;;12.70;99.90;;;;;;5039595;28;20389;-60
2023/06/07 02:54:54;;;;;;;15.10;5.20;;;12.70;99.90;;;;;;5051000;28;20052;-60
2023/06/07 02:57:21;;;;;;;13.98;4.72;;;12.70;99.90;;;;;;5047651;28;20072;-60
2023/06/07 02:59:48;;;;;;;7.63;4.07;;;12.70;99.90;;;;;;5035783;28;20053;-60
2023/06/07 03:02:15;;;;;;;9.38;4.38;;;12.70;99.90;;;;;;5035492;28;20042;-60
2023/06/07 03:04:43;;;;;;;8.43;4.50;;;12.80;99.90;;;;;;5045194;28;20049;-60
2023/06/07 03:07:10;;;;;;;12.25;4.55;;;12.80;99.90;;;;;;5047741;28;20449;-60
2023/06/07 03:09:38;;;;;;;10.73;4.60;;;12.70;99.90;;;;;;5039675;28;20264;-59
2023/06/07 03:12:06;;;;;;;17.08;5.60;;;12.80;99.90;;;;;;5043524;28;20052;-60
2023/06/07 03:14:34;;;;;;;8.50;4.68;;;12.80;99.90;;;;;;5023811;28;20045;-60
2023/06/07 03:17:02;;;;;;;11.70;4.20;;;12.70;99.90;;;;;;5048472;28;20045;-60
2023/06/07 03:19:29;;;;;;;17.30;4.78;;;12.70;99.90;;;;;;5042672;28;20057;-61
2023/06/07 03:21:57;;;;;;;8.70;4.40;;;12.80;99.90;;;;;;5032061;28;20136;-60
2023/06/07 03:24:24;;;;;;;15.82;6.22;;;12.70;99.90;;;;;;5040394;28;20048;-60
2023/06/07 03:26:52;;;;;;;10.70;5.65;;;12.70;99.90;;;;;;5051670;28;20064;-60
2023/06/07 03:29:19;;;;;;;12.30;5.00;;;12.70;99.90;;;;;;5043137;28;20132;-60
2023/06/07 03:31:46;;;;;;;12.35;5.40;;;12.70;99.90;;;;;;5013796;28;20535;-60
2023/06/07 03:34:12;;;;;;;13.65;4.70;;;12.70;99.90;;;;;;5036221;28;20401;-60
2023/06/07 03:36:40;;;;;;;7.57;4.50;;;12.70;99.90;;;;;;5051055;28;20484;-60
2023/06/07 03:39:07;;;;;;;16.42;5.22;;;12.70;99.90;;;;;;5038699;28;20065;-60
2023/06/07 03:41:33;;;;;;;12.95;4.70;;;12.70;99.90;;;;;;5046762;28;20411;-60
2023/06/07 03:44:00;;;;;;;14.07;5.90;;;12.70;99.90;;;;;;5044689;28;20579;-60
2023/06/07 03:46:27;;;;;;;12.23;5.20;;;12.60;99.90;;;;;;5045974;28;20051;-60
2023/06/07 03:48:54;;;;;;;10.70;4.65;;;12.70;99.90;;;;;;5045462;28;20072;-59
2023/06/07 03:51:21;;;;;;;15.05;5.20;;;12.70;99.90;;;;;;5046322;28;20052;-60
2023/06/07 03:53:48;;;;;;;14.30;5.47;;;12.60;99.90;;;;;;5045374;28;20049;-60
2023/06/07 03:56:15;;;;;;;13.32;5.72;;;12.60;99.90;;;;;;5047726;28;20049;-61
2023/06/07 03:58:45;;;;;;;9.27;4.78;;;12.60;99.90;;;;;;5046235;28;20041;-60
2023/06/07 04:01:12;;;;;;;12.77;5.25;;;12.60;99.90;;;;;;5034451;28;20486;-60
2023/06/07 04:03:39;;;;;;;9.75;4.97;;;12.50;99.90;;;;;;5033272;28;20517;-60
2023/06/07 04:06:08;;;;;;;11.20;5.03;;;12.60;99.90;;;;;;5043477;28;20081;-60
2023/06/07 04:08:38;;;;;;;12.88;4.25;;;12.60;99.90;;;;;;5047188;28;20049;-60
2023/06/07 04:11:06;;;;;;;18.63;5.47;;;12.60;99.90;;;;;;5039823;28;20037;-60
2023/06/07 04:13:33;;;;;;;20.83;6.85;;;12.60;99.90;;;;;;5048232;28;20080;-60
2023/06/07 04:15:59;;;;;;;15.95;5.32;;;12.60;99.90;;;;;;5037462;28;20041;-59
2023/06/07 04:18:26;;;;;;;12.38;4.68;;;12.50;99.90;;;;;;5048870;28;20136;-60
2023/06/07 04:20:53;;;;;;;13.45;5.20;;;12.50;99.90;;;;;;5023314;28;20045;-61
2023/06/07 04:23:20;;;;;;;13.93;5.65;;;12.50;99.90;;;;;;5037617;28;20049;-60
2023/06/07 04:25:47;;;;;;;7.47;4.93;;;12.50;99.90;;;;;;5037993;28;20037;-60
2023/06/07 04:28:14;;;;;;;11.63;5.05;;;12.50;99.90;;;;;;5048651;28;20049;-60
2023/06/07 04:30:42;;;;;;;11.85;5.95;;;12.40;99.90;;;;;;5040593;28;20045;-61
2023/06/07 04:33:12;;;;;;;11.15;5.63;;;12.50;99.90;;;;;;5019303;28;20058;-60
2023/06/07 04:35:42;;;;;;;10.02;5.57;;;12.40;99.90;;;;;;5036553;28;20408;-60
2023/06/07 04:38:11;;;;;;;10.68;5.43;;;12.40;99.90;;;;;;5047973;28;20045;-60
2023/06/07 04:40:41;;;;;;;10.00;4.80;;;12.50;99.90;;;;;;5041287;28;20132;-58
2023/06/07 04:43:08;;;;;;;11.40;5.22;;;12.50;99.90;;;;;;5033979;28;20053;-60
2023/06/07 04:45:41;;;;;;;10.65;5.00;;;12.50;99.90;;;;;;5035247;28;20076;-59
2023/06/07 04:48:11;;;;;;;9.85;5.13;;;12.50;99.90;;;;;;5034900;28;20096;-60
2023/06/07 04:50:41;;;;;;;15.65;5.13;;;12.40;99.90;;;;;;5035042;28;20049;-60
2023/06/07 04:53:10;;;;;;;11.75;4.88;;;12.50;99.90;;;;;;5045456;28;20053;-59
2023/06/07 04:55:38;;;;;;;15.15;5.55;;;12.50;99.90;;;;;;5040393;28;20045;-59
2023/06/07 04:58:05;;;;;;;9.73;5.03;;;12.50;99.90;;;;;;5038047;28;20053;-60
2023/06/07 05:00:33;;;;;;;9.75;4.72;;;12.40;99.90;;;;;;5030753;28;20492;-60
2023/06/07 05:03:08;;;;;;;12.35;4.57;;;12.50;99.90;;;;;;5040053;28;20095;-60
2023/06/07 05:05:35;;;;;;;12.52;5.00;;;12.50;99.90;;;;;;5029467;28;20057;-59
2023/06/07 05:08:02;;;;;;;7.18;4.88;;;12.60;99.90;;;;;;5039508;28;20041;-59
2023/06/07 05:10:29;;;;;;;9.15;4.18;;;12.60;99.90;;;;;;5028313;28;20076;-61
2023/06/07 05:12:56;;;;;;;11.52;5.70;;;12.50;99.90;;;;;;5054224;28;20445;-60
2023/06/07 05:15:23;;;;;;;7.40;4.93;;;12.60;99.90;;;;;;5035984;28;20803;-60
2023/06/07 05:17:54;;;;;;;8.77;5.35;;;12.60;99.90;;;;;;5033774;28;20521;-60
2023/06/07 05:20:24;;;;;;;9.30;3.70;;;12.60;99.90;;;;;;5046658;28;20118;-60
2023/06/07 05:22:51;;;;;;;9.18;4.80;;;12.50;99.90;;;;;;5034004;28;20128;-60
2023/06/07 05:25:18;;;;;;;15.95;4.82;;;12.60;99.90;;;;;;5048440;28;20045;-60
2023/06/07 05:27:45;;;;;;;7.22;4.95;;;12.70;99.90;;;;;;5035933;28;20318;-59
2023/06/07 05:30:25;;;;;;;14.13;4.40;;;12.70;99.90;;;;;;5030476;28;20121;-60
2023/06/07 05:32:52;;;;;;;14.65;3.92;;;12.70;99.90;;;;;;5038765;28;20459;-63
2023/06/07 05:35:19;;;;;;;12.85;4.65;;;12.70;99.90;;;;;;5047690;28;20048;-61
2023/06/07 05:37:48;;;;;;;7.35;3.80;;;12.70;99.90;;;;;;5044250;28;20053;-60
2023/06/07 05:40:18;;;;;;;7.97;4.28;;;12.70;99.90;;;;;;5029255;28;20512;-61
2023/06/07 05:42:46;;;;;;;10.82;4.07;;;12.70;99.90;;;;;;5038520;28;20049;-60
2023/06/07 05:45:12;;;;;;;7.95;4.53;;;12.70;99.90;;;;;;5014764;28;20080;-60
2023/06/07 05:47:41;;;;;;;13.45;4.20;;;12.70;99.90;;;;;;5031695;28;20489;-60
2023/06/07 05:50:10;;;;;;;34.53;7.60;;;12.70;99.90;;;;;;5023286;28;20073;-60
2023/06/07 05:52:37;;;;;;;8.77;3.97;;;12.70;99.90;;;;;;5039523;28;20495;-60
2023/06/07 05:55:04;;;;;;;12.55;4.40;;;12.80;99.90;;;;;;5046827;28;20049;-60
2023/06/07 05:57:31;;;;;;;10.52;4.20;;;12.80;99.90;;;;;;5043462;28;20095;-59
2023/06/07 05:59:58;;;;;;;8.75;3.80;;;12.80;99.90;;;;;;5037155;28;20057;-61
2023/06/07 06:02:26;;;;;;;8.85;4.03;;;12.80;99.90;;;;;;5029327;28;20068;-60
2023/06/07 06:04:53;;;;;;;11.73;4.38;;;12.80;99.90;;;;;;5045130;28;20052;-60
2023/06/07 06:07:21;;;;;;;12.57;4.43;;;12.90;99.90;;;;;;5032997;28;20040;-61
2023/06/07 06:09:47;;;;;;;10.90;4.22;;;12.90;99.90;;;;;;5022438;28;20045;-59
2023/06/07 06:12:14;;;;;;;8.65;3.72;;;12.90;99.90;;;;;;5039791;28;20049;-61
2023/06/07 06:14:41;;;;;;;13.50;4.72;;;12.90;99.90;;;;;;5044122;28;20056;-60
2023/06/07 06:17:08;;;;;;;7.20;4.00;;;12.90;99.90;;;;;;5038352;28;20053;-60
2023/06/07 06:19:35;;;;;;;7.28;4.50;;;12.90;99.90;;;;;;5034244;28;20061;-60
2023/06/07 06:22:02;;;;;;;10.30;3.58;;;12.90;99.90;;;;;;5041967;28;20049;-60
2023/06/07 06:24:29;;;;;;;11.98;3.88;;;12.90;99.90;;;;;;5035002;28;20500;-60
2023/06/07 06:26:56;;;;;;;9.82;3.45;;;12.90;99.90;;;;;;5041941;28;20087;-60
2023/06/07 06:29:22;;;;;;;10.43;3.75;;;13.00;99.90;;;;;;5039123;28;20053;-60
2023/06/07 06:31:49;;;;;;;11.00;3.97;;;13.00;99.90;;;;;;5039220;28;20044;-60
2023/06/07 06:34:18;;;;;;;11.07;4.38;;;13.00;99.90;;;;;;5040982;28;20210;-59
2023/06/07 06:36:46;;;;;;;12.98;4.38;;;13.00;99.90;;;;;;5042120;28;20045;-60
2023/06/07 06:39:14;;;;;;;10.93;4.32;;;13.00;99.90;;;;;;5034815;28;20049;-61
2023/06/07 06:41:41;;;;;;;10.80;3.90;;;13.00;99.90;;;;;;5041364;28;20087;-60
2023/06/07 06:44:07;;;;;;;10.63;4.18;;;13.10;99.90;;;;;;5036988;28;20068;-64
2023/06/07 06:46:35;;;;;;;9.50;4.22;;;13.10;99.90;;;;;;5034710;28;20052;-60
2023/06/07 06:49:02;;;;;;;11.32;4.13;;;13.20;99.90;;;;;;5041500;28;20067;-61
2023/06/07 06:51:38;;;;;;;16.95;5.00;;;13.20;99.90;;;;;;5034662;28;20041;-61
2023/06/07 06:54:08;;;;;;;16.48;5.05;;;13.20;99.90;;;;;;5045463;28;20053;-60
2023/06/07 06:56:35;;;;;;;13.20;4.28;;;13.20;99.90;;;;;;5043245;28;20072;-59
2023/06/07 06:59:02;;;;;;;10.23;3.65;;;13.20;99.90;;;;;;5028550;28;20056;-60
2023/06/07 07:01:46;;;;;;;12.70;4.75;;;13.30;99.90;;;;;;5037747;28;20049;-59
2023/06/07 07:04:14;;;;;;;10.88;4.25;;;13.30;99.90;;;;;;5046909;28;20084;-59
2023/06/07 07:06:41;;;;;;;14.02;4.45;;;13.30;99.90;;;;;;5045366;28;20123;-59
2023/06/07 07:09:09;;;;;;;15.32;5.00;;;13.40;99.90;;;;;;5049731;28;20057;-61
2023/06/07 07:11:36;;;;;;;10.80;4.93;;;13.40;99.90;;;;;;5034202;28;20063;-60
2023/06/07 07:14:03;;;;;;;10.32;4.13;;;13.50;99.90;;;;;;5051024;28;20049;-62
2023/06/07 07:16:31;;;;;;;14.55;4.18;;;13.50;99.90;;;;;;5025614;28;20439;-61
2023/06/07 07:18:58;;;;;;;19.58;4.68;;;13.50;99.90;;;;;;5045776;28;20486;-61
2023/06/07 07:21:26;;;;;;;10.95;4.20;;;13.50;99.90;;;;;;5043025;28;20103;-67
2023/06/07 07:23:54;;;;;;;10.40;3.83;;;13.60;99.90;;;;;;5047812;28;20499;-60
2023/06/07 07:26:21;;;;;;;12.43;4.05;;;13.60;99.90;;;;;;5044544;28;20099;-59
2023/06/07 07:28:48;;;;;;;11.45;3.78;;;13.60;99.90;;;;;;5032161;28;20045;-60
2023/06/07 07:31:15;;;;;;;20.55;5.53;;;13.70;99.90;;;;;;5044406;28;20118;-60
2023/06/07 07:33:42;;;;;;;8.45;3.80;;;13.80;99.90;;;;;;5038141;28;20053;-59
2023/06/07 07:36:12;;;;;;;12.60;4.25;;;13.80;99.90;;;;;;4683437;28;10000368;-58
2023/06/07 07:38:40;;;;;;;9.65;4.40;;;13.80;99.90;;;;;;5032452;28;20144;-58
2023/06/07 07:41:07;;;;;;;13.32;4.47;;;13.90;99.90;;;;;;5032123;28;20049;-59
2023/06/07 07:43:34;;;;;;;11.52;4.20;;;13.90;99.90;;;;;;5034879;28;20045;-57
2023/06/07 07:46:03;;;;;;;10.32;4.47;;;13.90;99.90;;;;;;5044338;28;20076;-58
2023/06/07 07:48:31;;;;;;;10.18;4.20;;;14.00;99.90;;;;;;5034641;28;20087;-58
2023/06/07 07:50:59;;;;;;;12.77;4.57;;;14.00;99.90;;;;;;5025592;28;20049;-59
2023/06/07 07:53:26;;;;;;;12.40;4.93;;;14.10;99.90;;;;;;5035428;28;20494;-59
2023/06/07 07:55:53;;;;;;;15.40;5.22;;;14.10;99.90;;;;;;5036437;28;20537;-58
2023/06/07 07:58:20;;;;;;;10.63;5.25;;;14.20;99.90;;;;;;5038136;28;20048;-62
2023/06/07 08:00:47;;;;;;;13.93;4.32;;;14.30;99.90;;;;;;5027964;28;20049;-58
2023/06/07 08:03:14;;;;;;;12.18;5.10;;;14.30;99.90;;;;;;5040158;28;20048;-59
2023/06/07 08:05:41;;;;;;;18.65;5.13;;;14.40;99.90;;;;;;5025540;28;20049;-59
2023/06/07 08:08:07;;;;;;;15.85;4.63;;;14.40;99.90;;;;;;5033613;28;20068;-60
2023/06/07 08:10:34;;;;;;;12.80;4.97;;;14.50;99.90;;;;;;5042633;28;20041;-57
2023/06/07 08:13:01;;;;;;;16.55;5.93;;;14.60;99.90;;;;;;5035022;28;20054;-59
2023/06/07 08:15:29;;;;;;;10.55;5.45;;;14.60;99.90;;;;;;5043679;28;20063;-58
2023/06/07 08:17:56;;;;;;;14.43;4.60;;;14.60;99.90;;;;;;5041648;28;20045;-59
2023/06/07 08:20:22;;;;;;;8.05;4.10;;;14.70;99.90;;;;;;5043055;28;20049;-57
2023/06/07 08:22:53;;;;;;;18.65;4.72;;;14.60;99.90;;;;;;5041082;28;20107;-59
2023/06/07 08:25:20;;;;;;;12.05;5.25;;;14.60;99.90;;;;;;5032282;28;20046;-58
2023/06/07 08:27:47;;;;;;;10.25;4.82;;;14.70;99.90;;;;;;5031593;28;20045;-60
2023/06/07 08:30:14;;;;;;;10.05;4.20;;;14.70;99.90;;;;;;5030077;28;20049;-59
2023/06/07 08:32:45;;;;;;;10.23;4.05;;;14.70;99.90;;;;;;5036529;28;20519;-58
2023/06/07 08:35:12;;;;;;;12.02;5.32;;;14.90;99.90;;;;;;5030375;28;20057;-56
2023/06/07 08:37:40;;;;;;;21.15;4.97;;;14.80;99.90;;;;;;5027796;28;20365;-59
2023/06/07 08:40:08;;;;;;;11.88;4.97;;;14.80;99.90;;;;;;5030368;28;20064;-58
2023/06/07 08:42:37;;;;;;;12.65;4.40;;;14.90;99.90;;;;;;5013707;28;20049;-60
2023/06/07 08:45:04;;;;;;;9.27;4.28;;;15.00;99.90;;;;;;5015535;28;20068;-59
2023/06/07 08:47:32;;;;;;;11.95;4.75;;;15.00;99.90;;;;;;5035328;28;20095;-59
2023/06/07 08:49:59;;;;;;;12.63;4.57;;;15.10;99.90;;;;;;5036795;28;20045;-59
2023/06/07 08:52:26;;;;;;;12.82;3.95;;;15.20;99.90;;;;;;5016810;28;20049;-60
2023/06/07 08:54:55;;;;;;;13.60;4.80;;;15.30;99.90;;;;;;5012964;28;20060;-59
2023/06/07 08:57:21;;;;;;;14.88;5.43;;;15.30;99.90;;;;;;5010777;28;20056;-59
2023/06/07 08:59:48;;;;;;;10.38;4.13;;;15.40;99.90;;;;;;5020309;28;20053;-58
2023/06/07 09:02:16;;;;;;;11.35;5.20;;;15.30;99.90;;;;;;5007881;28;20563;-60
2023/06/07 09:04:43;;;;;;;14.68;5.35;;;15.40;99.90;;;;;;5007102;28;20065;-58
2023/06/07 09:07:10;;;;;;;12.45;4.68;;;15.40;99.90;;;;;;5032873;28;20049;-58
2023/06/07 09:09:39;;;;;;;17.42;5.75;;;15.50;99.90;;;;;;5037251;28;20056;-59
2023/06/07 09:12:06;;;;;;;18.52;5.82;;;15.40;99.90;;;;;;5029304;28;20049;-59
2023/06/07 09:14:33;;;;;;;14.15;4.13;;;15.40;99.90;;;;;;5035180;28;20821;-59
2023/06/07 09:17:00;;;;;;;14.05;5.15;;;15.40;99.90;;;;;;5016224;28;20045;-58
2023/06/07 09:19:34;;;;;;;14.52;5.30;;;15.40;99.90;;;;;;5033537;28;20132;-59
2023/06/07 09:22:02;;;;;;;11.52;4.90;;;15.50;99.90;;;;;;5032787;28;20060;-61
2023/06/07 09:24:30;;;;;;;12.45;4.57;;;15.60;99.90;;;;;;5035177;28;20052;-59
2023/06/07 09:26:58;;;;;;;13.10;4.38;;;15.60;99.90;;;;;;5037259;28;20431;-60
2023/06/07 09:29:27;;;;;;;14.63;5.05;;;15.80;99.90;;;;;;5018359;28;20447;-59
2023/06/07 09:31:55;;;;;;;13.20;4.57;;;15.90;99.90;;;;;;5042303;28;20055;-59
2023/06/07 09:34:26;;;;;;;16.77;5.35;;;15.90;99.90;;;;;;5025794;28;20061;-59
2023/06/07 09:36:54;;;;;;;14.02;5.53;;;15.90;99.90;;;;;;5032952;28;20041;-59
2023/06/07 09:39:32;;;;;;;11.93;4.80;;;15.90;99.90;;;;;;5031689;28;20429;-58
2023/06/07 09:41:59;;;;;;;15.63;4.05;;;15.90;99.90;;;;;;5031202;28;20519;-59
2023/06/07 09:44:27;;;;;;;14.65;4.60;;;16.00;99.90;;;;;;5038355;28;20049;-58
2023/06/07 09:46:55;;;;;;;10.95;4.35;;;16.10;99.90;;;;;;5029731;28;20044;-59
2023/06/07 09:49:25;;;;;;;8.25;4.45;;;16.30;99.90;;;;;;5009106;28;20064;-59
2023/06/07 09:51:55;;;;;;;10.77;4.68;;;16.30;99.90;;;;;;5034845;28;20118;-59
2023/06/07 09:54:38;;;;;;;13.27;4.85;;;16.30;99.90;;;;;;5023430;28;20462;-58
2023/06/07 09:57:09;;;;;;;;;;;16.40;99.90;;;;;;5035558;28;20045;-58
2023/06/07 09:59:40;;;;;;;21.27;4.93;;;16.30;99.90;;;;;;5031503;28;20345;-59
2023/06/07 10:02:26;;;;;;;13.52;4.78;;;16.30;99.90;;;;;;5016435;28;20041;-59
2023/06/07 10:04:55;;;;;;;8.10;4.57;;;16.30;99.90;;;;;;5033475;28;20056;-59
2023/06/07 10:07:28;;;;;;;11.93;4.40;;;16.50;99.90;;;;;;5033786;28;20053;-59
2023/06/07 10:09:57;;;;;;;16.75;5.25;;;16.50;99.90;;;;;;5025453;28;20067;-60
2023/06/07 10:12:26;;;;;;;14.30;5.50;;;16.60;99.90;;;;;;5031238;28;20084;-59
2023/06/07 10:14:53;;;;;;;13.32;5.00;;;16.60;99.90;;;;;;5017100;28;20049;-59
2023/06/07 10:17:24;;;;;;;11.70;4.93;;;16.70;99.90;;;;;;5013389;28;20045;-59
2023/06/07 10:19:57;;;;;;;10.25;5.35;;;16.80;99.90;;;;;;5006671;28;20685;-58
2023/06/07 10:22:28;;;;;;;14.23;5.53;;;16.90;99.90;;;;;;5033728;28;20144;-59
2023/06/07 10:25:09;;;;;;;11.73;5.22;;;16.80;99.90;;;;;;5034390;28;20051;-59
2023/06/07 10:28:15;;;;;;;8.40;4.50;;;16.80;99.90;;;;;;5030308;28;20096;-60
2023/06/07 10:30:55;;;;;;;12.20;5.15;;;16.90;99.90;;;;;;5017499;28;20052;-60
2023/06/07 10:33:25;;;;;;;18.85;5.60;;;17.10;99.90;;;;;;5030594;28;20049;-60
2023/06/07 10:35:52;;;;;;;13.43;4.72;;;17.30;99.90;;;;;;5032968;28;20129;-59
2023/06/07 10:38:19;;;;;;;17.83;5.57;;;17.50;99.90;;;;;;5031793;28;20416;-59
2023/06/07 10:40:46;;;;;;;12.70;4.55;;;17.50;99.90;;;;;;5006947;28;20127;-59
2023/06/07 10:43:13;;;;;;;9.98;4.65;;;17.50;99.90;;;;;;5014680;28;20041;-59
2023/06/07 10:45:40;;;;;;;18.15;5.65;;;17.60;99.90;;;;;;5006927;28;20115;-59
2023/06/07 10:48:35;;;;;;;11.32;4.53;;;17.70;99.90;;;;;;5033834;28;20073;-59
2023/06/07 10:51:02;;;;;;;14.23;5.07;;;17.90;99.90;;;;;;5010638;28;20476;-58
2023/06/07 10:53:49;;;;;;;9.93;4.50;;;17.90;99.90;;;;;;5042258;28;20053;-63
2023/06/07 10:56:35;;;;;;;12.98;5.85;;;17.90;99.90;;;;;;5041377;28;20053;-63
2023/06/07 10:59:14;;;;;;;15.75;5.32;;;18.00;99.90;;;;;;5018882;28;20144;-63
2023/06/07 11:01:44;;;;;;;13.38;4.97;;;18.00;99.90;;;;;;5051445;28;20053;-63
2023/06/07 11:04:30;;;;;;;11.55;4.82;;;18.10;99.90;;;;;;5036565;28;20045;-64
2023/06/07 11:07:19;;;;;;;11.75;5.00;;;18.20;99.90;;;;;;5051137;28;20049;-64
2023/06/07 11:09:48;;;;;;;11.77;5.00;;;18.30;99.90;;;;;;5035251;28;20106;-65
2023/06/07 11:12:46;;;;;;;14.93;5.25;;;18.40;99.90;;;;;;5050202;28;20045;-63
2023/06/07 11:15:23;;;;;;;17.33;5.00;;;18.60;99.90;;;;;;5039399;28;20049;-63
2023/06/07 11:17:53;;;;;;;14.57;4.18;;;18.60;99.90;;;;;;5062580;28;20084;-63
2023/06/07 11:20:38;;;;;;;19.05;5.82;;;18.60;99.90;;;;;;5039667;28;20052;-63
2023/06/07 11:23:21;;;;;;;14.65;4.82;;;18.60;99.90;;;;;;5031763;28;20118;-63
2023/06/07 11:25:52;;;;;;;13.93;4.75;;;18.60;99.90;;;;;;5021200;28;20099;-62
2023/06/07 11:28:27;;;;;;;16.95;4.65;;;18.60;99.90;;;;;;5047608;28;20122;-64
2023/06/07 11:30:54;;;;;;;10.55;3.92;;;18.70;99.90;;;;;;5041975;28;20130;-65
2023/06/07 11:33:22;;;;;;;10.10;4.50;;;18.90;99.90;;;;;;5035513;28;21411;-64
2023/06/07 11:35:49;;;;;;;16.48;4.65;;;19.10;99.90;;;;;;5038412;28;20458;-64
2023/06/07 11:38:16;;;;;;;17.00;5.15;;;19.10;99.90;;;;;;5030594;28;20132;-63
2023/06/07 11:40:44;;;;;;;12.93;4.18;;;19.20;99.90;;;;;;5038143;28;20049;-63
2023/06/07 11:43:11;;;;;;;12.88;4.63;;;19.10;99.90;;;;;;5031670;28;20049;-62
2023/06/07 11:45:42;;;;;;;17.63;5.68;;;19.00;99.90;;;;;;5036168;28;20049;-62
2023/06/07 11:48:09;;;;;;;19.00;5.82;;;19.00;99.90;;;;;;5049900;28;20055;-62
2023/06/07 11:50:40;;;;;;;12.18;4.65;;;18.90;99.90;;;;;;5045579;28;20056;-62
2023/06/07 11:53:08;;;;;;;21.00;5.00;;;19.00;99.90;;;;;;5049178;28;20116;-62
2023/06/07 11:55:39;;;;;;;14.23;4.50;;;18.80;99.90;;;;;;5033685;28;20076;-62
2023/06/07 11:58:05;;;;;;;12.95;5.18;;;19.00;99.90;;;;;;5048506;28;20076;-62
2023/06/07 12:00:33;;;;;;;17.13;5.30;;;19.10;99.90;;;;;;5038662;28;20053;-62
2023/06/07 12:03:01;;;;;;;16.05;5.70;;;19.10;99.90;;;;;;5011679;28;20049;-62
2023/06/07 12:05:30;;;;;;;15.80;4.30;;;19.10;99.90;;;;;;5030951;28;20061;-62
2023/06/07 12:08:04;;;;;;;16.27;5.65;;;19.10;99.90;;;;;;5026685;28;20041;-62
2023/06/07 12:10:32;;;;;;;18.00;5.43;;;19.30;99.90;;;;;;5044321;28;20653;-64
2023/06/07 12:13:18;;;;;;;13.65;4.60;;;19.30;99.90;;;;;;5035216;28;20045;-62
2023/06/07 12:15:51;;;;;;;14.50;4.40;;;19.30;99.90;;;;;;5033559;28;20444;-62
2023/06/07 12:18:19;;;;;;;17.50;4.55;;;19.40;99.90;;;;;;5045304;28;20566;-62
2023/06/07 12:20:47;;;;;;;18.10;5.25;;;19.50;99.90;;;;;;5035161;28;20052;-62
2023/06/07 12:23:14;;;;;;;12.48;4.70;;;19.60;99.90;;;;;;5045427;28;20037;-62
2023/06/07 12:25:41;;;;;;;10.05;5.00;;;19.70;99.90;;;;;;5044932;28;20045;-63
2023/06/07 12:28:09;;;;;;;15.93;4.70;;;19.80;99.90;;;;;;5038070;28;20050;-62
2023/06/07 12:30:40;;;;;;;14.30;5.63;;;20.00;99.90;;;;;;5025570;28;20125;-63
2023/06/07 12:33:14;;;;;;;15.70;4.72;;;20.00;99.90;;;;;;5040011;28;20049;-62
2023/06/07 12:35:46;;;;;;;14.65;5.10;;;20.00;99.90;;;;;;5044185;28;20052;-63
2023/06/07 12:38:13;;;;;;;15.13;4.00;;;20.10;99.90;;;;;;5038216;28;20053;-63
2023/06/07 12:40:40;;;;;;;22.10;5.50;;;20.20;99.90;;;;;;5032185;28;20648;-63
2023/06/07 12:43:07;;;;;;;14.95;4.95;;;20.30;99.90;;;;;;5039202;28;20120;-64
2023/06/07 12:45:34;;;;;;;17.80;4.90;;;20.40;99.90;;;;;;5027953;28;20523;-63
2023/06/07 12:48:01;;;;;;;17.55;4.93;;;20.40;99.90;;;;;;5040793;28;20064;-63
2023/06/07 12:50:28;;;;;;;11.60;4.13;;;20.50;99.90;;;;;;5044891;28;20462;-63